Data for 06/16/2015

Time Sea-Level Adjusted Pressure Absolute Pressure Temperature Relative Humidity Dew Point   
(mb) (inHg) (mb) (inHg) (C) (F) (%) (C) (F)
00:05 1019 30.09 848 25.04 10.6 51.2 80 7.3 45.2
00:10 1019 30.09 849 25.07 10.5 51 81 7.4 45.3
00:15 1019 30.09 849 25.07 10.4 50.8 81 7.3 45.2
00:20 1019 30.09 849 25.07 10.5 50.8 81 7.3 45.1
00:25 1020 30.12 849 25.07 10.4 50.8 80 7.2 45
00:30 1020 30.12 849 25.07 10.5 51 79 7.1 44.8
00:35 1020 30.12 849 25.07 10.6 51 79 7.1 44.7
00:40 1020 30.12 849 25.07 10.7 51.2 79 7.2 44.9
00:45 1020 30.12 849 25.07 10.7 51.2 78 7.1 44.7
00:50 1020 30.12 849 25.07 10.8 51.4 76 6.8 44.3
00:55 1020 30.12 849 25.07 11 51.8 76 6.9 44.4
01:00 1020 30.12 849 25.07 11 51.7 77 7.2 44.9
01:05 1020 30.12 849 25.07 10.8 51.5 79 7.4 45.3
01:10 1020 30.12 849 25.07 10.7 51.2 80 7.3 45.2
01:15 1020 30.12 849 25.07 10.6 51 80 7.4 45.2
01:20 1020 30.12 849 25.07 10.5 50.8 81 7.3 45.2
01:25 1020 30.12 849 25.07 10.4 50.6 81 7.3 45.1
01:30 1020 30.12 849 25.07 10.3 50.5 81 7.2 45
01:35 1020 30.12 849 25.07 10.2 50.4 82 7.2 45
01:40 1020 30.12 849 25.07 10.2 50.3 83 7.4 45.4
01:45 1020 30.12 849 25.07 10.1 50.1 83 7.3 45.2
01:50 1020 30.12 849 25.07 9.7 49.4 85 7.2 44.9
01:55 1020 30.12 849 25.07 9.5 49 85 7 44.6
02:00 1020 30.12 849 25.07 9.4 48.9 84 6.9 44.4
02:05 1020 30.12 849 25.07 9.3 48.7 85 6.8 44.3
02:10 1020 30.12 849 25.07 9.2 48.6 85 6.8 44.2
02:15 1020 30.12 849 25.07 9.2 48.6 83 6.5 43.7
02:20 1020 30.12 849 25.07 9.4 49 82 6.6 43.9
02:25 1020 30.12 849 25.07 9.3 48.7 83 6.5 43.8
02:30 1020 30.12 849 25.07 9.5 49 81 6.4 43.6
02:35 1020 30.12 849 25.07 9.6 49.2 82 6.6 43.8
02:40 1020 30.12 849 25.07 9.4 49 82 6.6 43.8
02:45 1020 30.12 849 25.07 8.9 48.1 86 6.7 44.1
02:50 1020 30.12 849 25.07 8.1 46.7 88 6.2 43.2
02:55 1020 30.12 849 25.07 7.6 45.7 90 6 42.9
03:00 1020 30.12 849 25.07 7.8 46 89 6.1 42.9
03:05 1020 30.12 849 25.07 8.1 46.7 87 6.2 43.1
03:10 1020 30.12 849 25.07 8.3 47 86 6.2 43.1
03:15 1020 30.12 849 25.07 8.2 46.7 86 6 42.9
03:20 1020 30.12 849 25.07 8.1 46.5 87 6 42.7
03:25 1020 30.12 849 25.07 8.1 46.7 86 5.9 42.7
03:30 1020 30.12 849 25.07 8.2 46.7 86 6 42.8
03:35 1020 30.12 849 25.07 8.1 46.5 86 5.9 42.7
03:40 1020 30.12 849 25.07 8.1 46.5 87 6.1 43
03:45 1020 30.12 849 25.07 8.2 46.8 87 6.1 43.1
03:50 1020 30.12 849 25.07 8.3 47 87 6.3 43.3
03:55 1020 30.12 849 25.07 8.4 47.1 86 6.2 43.2
04:00 1020 30.12 849 25.07 8.3 46.9 86 6.1 43
04:05 1020 30.12 849 25.07 8.1 46.5 87 6 42.7
04:10 1020 30.12 849 25.07 7.9 46.2 87 5.9 42.7
04:15 1020 30.12 849 25.07 7.8 46.1 87 5.8 42.5
04:20 1020 30.12 849 25.07 7.8 46 88 5.9 42.6
04:25 1020 30.12 849 25.07 8 46.3 87 5.9 42.6
04:30 1020 30.12 849 25.07 8.1 46.6 87 6 42.8
04:35 1020 30.12 849 25.07 8.2 46.7 86 6 42.8
04:40 1020 30.12 849 25.07 8.1 46.5 86 5.9 42.6
04:45 1020 30.12 849 25.07 7.9 46.2 86 5.7 42.2
04:50 1020 30.12 849 25.07 7.8 46 87 5.7 42.2
04:55 1020 30.12 849 25.07 7.8 46 87 5.7 42.2
05:00 1020 30.12 849 25.07 7.9 46.3 86 5.7 42.3
05:05 1020 30.12 849 25.07 8 46.4 86 5.7 42.3
05:10 1020 30.12 849 25.07 8 46.4 85 5.7 42.3
05:15 1020 30.12 849 25.07 8.1 46.6 85 5.7 42.3
05:20 1020 30.12 849 25.07 8.2 46.7 84 5.7 42.3
05:25 1020 30.12 849 25.07 8.3 46.9 84 5.8 42.4
05:30 1020 30.12 849 25.07 8.5 47.3 83 5.8 42.5
05:35 1020 30.12 849 25.07 8.6 47.5 84 6 42.8
05:40 1020 30.12 849 25.07 8.9 48 83 6.2 43.1
05:45 1020 30.12 849 25.07 9.2 48.6 82 6.2 43.2
05:50 1020 30.12 850 25.1 9.3 48.7 82 6.3 43.3
05:55 1020 30.12 849 25.07 9.4 48.9 81 6.3 43.4
06:00 1020 30.12 849 25.07 9.5 49 80 6.3 43.3
06:05 1020 30.12 849 25.07 9.5 49 81 6.4 43.4
06:10 1020 30.12 849 25.07 9.5 49.1 81 6.4 43.6
06:15 1020 30.12 850 25.1 9.7 49.4 80 6.4 43.5
06:20 1020 30.12 850 25.1 9.9 49.8 80 6.6 44
06:25 1020 30.12 850 25.1 10.2 50.4 78 6.6 43.9
06:30 1021 30.15 850 25.1 10.3 50.5 79 6.8 44.3
06:35 1021 30.15 850 25.1 10.5 50.9 78 6.8 44.2
06:40 1021 30.15 850 25.1 10.6 51 78 6.9 44.3
06:45 1021 30.15 850 25.1 11.1 51.9 76 7 44.7
06:50 1021 30.15 850 25.1 11.7 53 76 7.5 45.5
06:55 1021 30.15 850 25.1 11.7 53 75 7.5 45.5
07:00 1021 30.15 850 25.1 11.7 53 76 7.6 45.7
07:05 1021 30.15 850 25.1 12 53.5 75 7.6 45.8
07:10 1021 30.15 850 25.1 12.1 53.8 75 7.8 46
07:15 1021 30.15 850 25.1 12.6 54.7 72 7.8 46
07:20 1021 30.15 850 25.1 12.5 54.5 72 7.6 45.7
07:25 1021 30.15 850 25.1 12.7 54.8 70 7.3 45.2
07:30 1021 30.15 850 25.1 12.8 55.1 70 7.5 45.6
07:35 1021 30.15 850 25.1 13.1 55.5 68 7.4 45.4
07:40 1021 30.15 850 25.1 13.6 56.4 67 7.5 45.5
07:45 1021 30.15 850 25.1 13.3 55.9 66 7.2 45
07:50 1021 30.15 850 25.1 13.6 56.4 66 7.3 45.2
07:55 1021 30.15 850 25.1 13.4 56.1 65 7 44.6
08:00 1021 30.15 850 25.1 14.1 57.4 63 7.3 45.1
08:05 1021 30.15 850 25.1 14.3 57.8 65 7.8 46.1
08:10 1021 30.15 850 25.1 14.1 57.4 64 7.4 45.3
08:15 1021 30.15 850 25.1 14.6 58.2 62 7.4 45.3
08:20 1021 30.15 850 25.1 15 59.1 60 7.5 45.5
08:25 1021 30.15 850 25.1 15.3 59.5 60 7.6 45.8
08:30 1021 30.15 850 25.1 15.6 60.2 58 7.5 45.5
08:35 1021 30.15 850 25.1 16.4 61.6 55 7.3 45.2
08:40 1021 30.15 850 25.1 16.2 61.1 57 7.6 45.7
08:45 1021 30.15 850 25.1 15.8 60.5 57 7.3 45.1
08:50 1021 30.15 850 25.1 16.2 61.2 54 7.1 44.8
08:55 1021 30.15 850 25.1 16.4 61.6 54 7.3 45.2
09:00 1021 30.15 850 25.1 16.4 61.6 54 7.3 45.1
09:05 1021 30.15 850 25.1 17 62.6 51 6.9 44.5
09:10 1021 30.15 850 25.1 17.1 62.8 52 7.4 45.2
09:15 1021 30.15 850 25.1 17.3 63.1 51 7.1 44.7
09:20 1021 30.15 850 25.1 17.9 64.1 49 7.1 44.8
09:25 1021 30.15 850 25.1 17.8 64 51 7.7 45.9
09:30 1021 30.15 850 25.1 18 64.3 49 7.3 45.1
09:35 1021 30.15 850 25.1 18.5 65.3 50 7.9 46.3
09:40 1021 30.15 850 25.1 18.1 64.5 53 8.4 47.2
09:45 1021 30.15 850 25.1 17.8 64.1 50 7.4 45.3
09:50 1021 30.15 850 25.1 17.8 64 53 8.3 46.9
09:55 1021 30.15 850 25.1 17.5 63.6 51 7.3 45.2
10:00 1021 30.15 850 25.1 17.8 64.1 51 7.8 46
10:05 1020 30.12 850 25.1 17.2 63 54 7.9 46.2
10:10 1020 30.12 850 25.1 17.4 63.3 50 6.9 44.4
10:15 1020 30.12 850 25.1 17.7 63.8 51 7.5 45.5
10:20 1020 30.12 849 25.07 18.1 64.5 51 8 46.3
10:25 1020 30.12 849 25.07 18.1 64.6 52 8.1 46.7
10:30 1020 30.12 849 25.07 17.8 64 50 7.4 45.3
10:35 1020 30.12 849 25.07 18.6 65.4 47 7.1 44.8
10:40 1020 30.12 849 25.07 19.2 66.5 46 7.5 45.5
10:45 1020 30.12 849 25.07 19.3 66.7 47 7.9 46.2
10:50 1020 30.12 849 25.07 18.9 66.1 47 7.4 45.4
10:55 1020 30.12 849 25.07 19.9 67.8 43 7.1 44.7
11:00 1020 30.12 849 25.07 20.2 68.4 43 7.4 45.3
11:05 1020 30.12 849 25.07 19.8 67.6 45 7.7 45.8
11:10 1020 30.12 849 25.07 19 66.1 45 6.9 44.4
11:15 1020 30.12 849 25.07 20.1 68.2 43 7.2 44.9
11:20 1020 30.12 849 25.07 20.8 69.5 39 6.6 43.9
11:25 1020 30.12 849 25.07 19.7 67.4 46 7.8 46
11:30 1020 30.12 849 25.07 20 68.1 41 6.6 43.8
11:35 1020 30.12 849 25.07 21.3 70.3 39 6.8 44.3
11:40 1020 30.12 849 25.07 21.7 71 41 8 46.3
11:45 1020 30.12 849 25.07 21.3 70.3 40 7.4 45.3
11:50 1020 30.12 849 25.07 21.5 70.8 40 7.6 45.7
11:55 1020 30.12 849 25.07 21.5 70.8 39 7.2 44.9
12:00 1020 30.12 849 25.07 21.3 70.3 39 6.8 44.2
12:05 1020 30.12 849 25.07 21.8 71.3 39 7.3 45.2
12:10 1020 30.12 849 25.07 21.9 71.5 39 7.7 45.8
12:15 1020 30.12 849 25.07 21.6 70.8 41 8.1 46.6
12:20 1020 30.12 849 25.07 21.7 71 37 6.4 43.4
12:25 1020 30.12 849 25.07 22.3 72.1 38 7.4 45.3
12:30 1020 30.12 849 25.07 22.3 72.1 38 7.3 45.2
12:35 1020 30.12 849 25.07 22.8 73.1 35 6.8 44.3
12:40 1020 30.12 849 25.07 22.6 72.6 33 5.7 42.3
12:45 1020 30.12 849 25.07 22.2 71.9 36 6.5 43.7
12:50 1020 30.12 849 25.07 22.7 72.8 34 6.1 43
12:55 1020 30.12 849 25.07 23.1 73.7 35 7.2 44.9
13:00 1019 30.09 849 25.07 22.8 73 33 5.8 42.4
13:05 1019 30.09 849 25.07 22.7 72.8 36 6.9 44.3
13:10 1019 30.09 849 25.07 23.1 73.5 31 5.2 41.4
13:15 1019 30.09 849 25.07 23.9 75.1 31 6.1 42.9
13:20 1019 30.09 848 25.04 23.2 73.8 33 6.1 43
13:25 1019 30.09 848 25.04 22.4 72.4 33 5.7 42.2
13:30 1019 30.09 848 25.04 22.3 72.1 33 5.4 41.8
13:35 1019 30.09 848 25.04 22.6 72.6 32 5.4 41.7
13:40 1019 30.09 848 25.04 23.1 73.5 31 5.1 41.2
13:45 1019 30.09 848 25.04 23 73.5 31 5.2 41.4
13:50 1019 30.09 848 25.04 22.8 73 32 5.5 41.8
13:55 1019 30.09 848 25.04 22.5 72.4 32 5.2 41.4
14:00 1019 30.09 848 25.04 21.8 71.2 34 5.4 41.7
14:05 1019 30.09 848 25.04 21.6 70.9 33 4.7 40.5
14:10 1019 30.09 848 25.04 21 69.8 33 4.3 39.8
14:15 1019 30.09 848 25.04 20.9 69.6 34 4.5 40
14:20 1019 30.09 848 25.04 20.7 69.3 34 4.6 40.2
14:25 1019 30.09 848 25.04 20.3 68.6 33 3.8 38.8
14:30 1019 30.09 848 25.04 20.1 68.1 34 3.9 39
14:35 1019 30.09 848 25.04 20.1 68.2 36 4.6 40.2
14:40 1019 30.09 848 25.04 19.9 67.8 38 5.2 41.3
14:45 1019 30.09 848 25.04 19.8 67.6 39 5.4 41.7
14:50 1019 30.09 848 25.04 19.6 67.2 39 5.3 41.6
14:55 1019 30.09 849 25.07 19.6 67.3 39 5.6 42.1
15:00 1020 30.12 849 25.07 19.8 67.6 40 6 42.9
15:05 1020 30.12 849 25.07 19.6 67.3 45 7.5 45.5
15:10 1020 30.12 849 25.07 18.6 65.5 39 4.5 40.1
15:15 1020 30.12 849 25.07 18.1 64.6 41 4.7 40.5
15:20 1020 30.12 849 25.07 18.2 64.7 31 0.7 33.2
15:25 1020 30.12 849 25.07 18.7 65.6 35 3.1 37.6
15:30 1020 30.12 849 25.07 18.3 65 38 3.8 38.9
15:35 1019 30.09 848 25.04 18.4 65.1 31 1.1 34
15:40 1019 30.09 848 25.04 19.4 67 37 4.5 40
15:45 1019 30.09 848 25.04 18.8 65.8 37 3.9 39
15:50 1019 30.09 848 25.04 18.5 65.3 42 5.5 41.9
15:55 1019 30.09 849 25.07 18.5 65.2 43 5.7 42.2
16:00 1020 30.12 849 25.07 18.3 64.9 46 6.6 43.8
16:05 1020 30.12 849 25.07 17.8 64 51 7.6 45.6
16:10 1020 30.12 849 25.07 17.5 63.5 54 8.3 46.9
16:15 1020 30.12 849 25.07 17.7 63.8 54 8.2 46.8
16:20 1019 30.09 848 25.04 17.9 64.2 46 6.1 43
16:25 1019 30.09 848 25.04 18.3 65 43 5.7 42.3
16:30 1019 30.09 848 25.04 18.8 65.8 39 4.6 40.4
16:35 1019 30.09 848 25.04 19.3 66.7 38 4.8 40.6
16:40 1019 30.09 848 25.04 19.5 67.2 39 5.5 41.9
16:45 1019 30.09 848 25.04 19.9 67.7 34 3.9 39
16:50 1019 30.09 848 25.04 20.2 68.3 33 3.5 38.2
16:55 1019 30.09 848 25.04 20.5 68.9 36 5.2 41.4
17:00 1019 30.09 848 25.04 20.6 69.1 31 3.3 37.9
17:05 1019 30.09 848 25.04 20.6 69 32 3.5 38.3
17:10 1019 30.09 848 25.04 20.5 68.9 33 3.6 38.5
17:15 1019 30.09 848 25.04 20.7 69.3 33 4 39.2
17:20 1019 30.09 848 25.04 21.1 69.9 33 4.1 39.5
17:25 1019 30.09 848 25.04 21.1 70 32 3.8 38.9
17:30 1019 30.09 849 25.07 21.2 70.1 31 3.7 38.7
17:35 1019 30.09 848 25.04 21.4 70.5 33 4.8 40.7
17:40 1019 30.09 848 25.04 21.5 70.8 30 3.6 38.5
17:45 1019 30.09 848 25.04 21.4 70.6 33 4.8 40.7
17:50 1019 30.09 848 25.04 21 69.7 33 4.2 39.6
17:55 1019 30.09 848 25.04 20.7 69.2 33 4 39.2
18:00 1019 30.09 848 25.04 20.9 69.7 33 4.4 39.9
18:05 1019 30.09 848 25.04 20.8 69.5 32 3.6 38.5
18:10 1019 30.09 848 25.04 21 69.7 31 3.5 38.3
18:15 1019 30.09 848 25.04 20.8 69.4 32 3.8 38.8
18:20 1019 30.09 848 25.04 20.8 69.4 32 3.6 38.5
18:25 1019 30.09 848 25.04 21.1 70 33 4.2 39.5
18:30 1019 30.09 848 25.04 21.1 70 31 3.4 38.2
18:35 1019 30.09 848 25.04 20.9 69.6 33 4 39.1
18:40 1019 30.09 848 25.04 20.9 69.5 32 3.6 38.6
18:45 1019 30.09 848 25.04 20.7 69.3 30 2.9 37.2
18:50 1019 30.09 848 25.04 20.7 69.2 30 2.9 37.2
18:55 1019 30.09 848 25.04 20.6 69.1 31 3.3 37.9
19:00 1019 30.09 848 25.04 20.6 69 32 3.3 37.9
19:05 1019 30.09 848 25.04 20.5 68.8 32 3.5 38.3
19:10 1019 30.09 848 25.04 20.4 68.7 33 3.7 38.6
19:15 1019 30.09 848 25.04 20.4 68.7 33 3.8 38.8
19:20 1019 30.09 848 25.04 20.3 68.5 35 4.6 40.2
19:25 1019 30.09 848 25.04 19.9 67.8 39 5.6 42
19:30 1019 30.09 848 25.04 19.4 66.9 40 5.7 42.3
19:35 1019 30.09 848 25.04 18.9 66.1 39 5 40.9
19:40 1019 30.09 848 25.04 18.8 65.8 40 4.9 40.7
19:45 1019 30.09 848 25.04 18.4 65.1 42 5.4 41.7
19:50 1019 30.09 848 25.04 18.1 64.5 43 5.3 41.6
19:55 1019 30.09 848 25.04 17.9 64.2 43 5.2 41.3
20:00 1019 30.09 848 25.04 17.8 64.1 43 5.2 41.4
20:05 1019 30.09 848 25.04 17.7 63.9 43 5 41
20:10 1019 30.09 848 25.04 17.6 63.6 44 5.3 41.5
20:15 1019 30.09 848 25.04 17.2 63 46 5.8 42.4
20:20 1019 30.09 848 25.04 16.8 62.2 47 5.4 41.8
20:25 1019 30.09 848 25.04 16.7 62.1 46 5.3 41.5
20:30 1019 30.09 849 25.07 16.6 61.9 47 5.4 41.6
20:35 1019 30.09 849 25.07 16.4 61.6 47 5.3 41.5
20:40 1020 30.12 849 25.07 16.4 61.5 47 5.1 41.2
20:45 1020 30.12 849 25.07 16.4 61.5 47 5.2 41.4
20:50 1020 30.12 849 25.07 16.2 61.2 48 5.3 41.5
20:55 1020 30.12 849 25.07 16.1 60.9 48 5.2 41.4
21:00 1020 30.12 849 25.07 16 60.8 48 5.2 41.3
21:05 1020 30.12 849 25.07 16 60.7 48 5.1 41.1
21:10 1020 30.12 849 25.07 16 60.8 47 4.8 40.7
21:15 1020 30.12 849 25.07 16.1 60.9 47 4.9 40.9
21:20 1020 30.12 849 25.07 16 60.9 47 4.9 40.8
21:25 1020 30.12 849 25.07 16 60.9 47 5 40.9
21:30 1020 30.12 849 25.07 16 60.8 48 4.9 40.9
21:35 1020 30.12 849 25.07 15.9 60.7 48 4.9 40.9
21:40 1020 30.12 849 25.07 15.9 60.5 48 4.9 40.7
21:45 1020 30.12 849 25.07 15.8 60.5 48 5 41
21:50 1020 30.12 849 25.07 15.7 60.2 49 5.2 41.4
21:55 1020 30.12 849 25.07 15.5 59.8 50 5.2 41.4
22:00 1020 30.12 849 25.07 15.3 59.5 51 5.3 41.6
22:05 1020 30.12 849 25.07 15.2 59.3 52 5.4 41.6
22:10 1020 30.12 849 25.07 15.1 59.2 51 5.3 41.5
22:15 1020 30.12 849 25.07 15.1 59.3 51 5.3 41.5
22:20 1020 30.12 849 25.07 14.9 58.9 53 5.5 41.9
22:25 1020 30.12 849 25.07 14.6 58.3 54 5.5 41.9
22:30 1020 30.12 849 25.07 14.5 58.1 55 5.6 42
22:35 1020 30.12 849 25.07 14.4 57.9 55 5.6 42.2
22:40 1020 30.12 849 25.07 14.1 57.4 58 6 42.9
22:45 1020 30.12 849 25.07 13.7 56.7 59 5.9 42.5
22:50 1020 30.12 849 25.07 13.6 56.4 60 5.9 42.6
22:55 1020 30.12 849 25.07 13.3 56 60 5.7 42.3
23:00 1020 30.12 849 25.07 13.5 56.2 58 5.3 41.6
23:05 1020 30.12 849 25.07 13.9 57.1 56 5.3 41.6
23:10 1020 30.12 849 25.07 14 57.2 56 5.5 42
23:15 1020 30.12 849 25.07 14 57.2 56 5.3 41.6
23:20 1020 30.12 849 25.07 14 57.2 56 5.5 41.9
23:25 1020 30.12 849 25.07 13.8 56.8 57 5.5 41.9
23:30 1020 30.12 849 25.07 13.6 56.5 58 5.6 42
23:35 1020 30.12 849 25.07 13.4 56.1 59 5.6 42.1
23:40 1020 30.12 849 25.07 13.2 55.8 59 5.5 42
23:45 1020 30.12 849 25.07 13.2 55.7 59 5.3 41.6
23:50 1020 30.12 849 25.07 13.1 55.6 60 5.5 41.9
23:55 1020 30.12 849 25.07 13 55.4 61 5.7 42.3
24:00 1020 30.12 849 25.07 12.7 54.8 63 5.8 42.4